sensor_id;sensor_type;location;lat;lon;timestamp;temperature;humidity
13123;DHT22;6627;50.920;12.050;2023-04-16T00:01:31;8.50;99.90
13123;DHT22;6627;50.920;12.050;2023-04-16T00:03:59;8.50;99.90
13123;DHT22;6627;50.920;12.050;2023-04-16T00:06:27;8.50;99.90
13123;DHT22;6627;50.920;12.050;2023-04-16T00:08:55;8.40;99.90
13123;DHT22;6627;50.920;12.050;2023-04-16T00:11:22;8.40;99.90
13123;DHT22;6627;50.920;12.050;2023-04-16T00:13:49;8.40;99.90
13123;DHT22;6627;50.920;12.050;2023-04-16T00:16:16;8.40;99.90
13123;DHT22;6627;50.920;12.050;2023-04-16T00:18:43;8.40;99.90
13123;DHT22;6627;50.920;12.050;2023-04-16T00:21:12;8.40;99.90
13123;DHT22;6627;50.920;12.050;2023-04-16T00:23:40;8.50;99.90
13123;DHT22;6627;50.920;12.050;2023-04-16T00:26:07;8.40;99.90
13123;DHT22;6627;50.920;12.050;2023-04-16T00:28:35;8.40;99.90
13123;DHT22;6627;50.920;12.050;2023-04-16T00:31:02;8.40;99.90
13123;DHT22;6627;50.920;12.050;2023-04-16T00:33:29;8.40;99.90
13123;DHT22;6627;50.920;12.050;2023-04-16T00:35:56;8.40;99.90
13123;DHT22;6627;50.920;12.050;2023-04-16T00:38:26;8.40;99.90
13123;DHT22;6627;50.920;12.050;2023-04-16T00:40:55;8.40;99.90
13123;DHT22;6627;50.920;12.050;2023-04-16T00:43:28;8.40;99.90
13123;DHT22;6627;50.920;12.050;2023-04-16T00:45:56;8.40;99.90
13123;DHT22;6627;50.920;12.050;2023-04-16T00:48:24;8.40;99.90
13123;DHT22;6627;50.920;12.050;2023-04-16T00:50:53;8.40;99.90
13123;DHT22;6627;50.920;12.050;2023-04-16T00:53:21;8.40;99.90
13123;DHT22;6627;50.920;12.050;2023-04-16T00:55:50;8.40;99.90
13123;DHT22;6627;50.920;12.050;2023-04-16T00:58:18;8.40;99.90
13123;DHT22;6627;50.920;12.050;2023-04-16T01:00:46;8.40;99.90
13123;DHT22;6627;50.920;12.050;2023-04-16T01:03:13;8.40;99.90
13123;DHT22;6627;50.920;12.050;2023-04-16T01:05:40;8.40;99.90
13123;DHT22;6627;50.920;12.050;2023-04-16T01:08:14;8.40;99.90
13123;DHT22;6627;50.920;12.050;2023-04-16T01:10:43;8.40;99.90
13123;DHT22;6627;50.920;12.050;2023-04-16T01:13:12;8.40;99.90
13123;DHT22;6627;50.920;12.050;2023-04-16T01:15:39;8.40;99.90
13123;DHT22;6627;50.920;12.050;2023-04-16T01:18:13;8.40;99.90
13123;DHT22;6627;50.920;12.050;2023-04-16T01:20:42;8.40;99.90
13123;DHT22;6627;50.920;12.050;2023-04-16T01:23:09;8.40;99.90
13123;DHT22;6627;50.920;12.050;2023-04-16T01:25:37;8.40;99.90
13123;DHT22;6627;50.920;12.050;2023-04-16T01:28:05;8.40;99.90
13123;DHT22;6627;50.920;12.050;2023-04-16T01:30:32;8.40;99.90
13123;DHT22;6627;50.920;12.050;2023-04-16T01:33:00;8.40;99.90
13123;DHT22;6627;50.920;12.050;2023-04-16T01:35:27;8.40;99.90
13123;DHT22;6627;50.920;12.050;2023-04-16T01:37:56;8.40;99.90
13123;DHT22;6627;50.920;12.050;2023-04-16T01:40:23;8.40;99.90
13123;DHT22;6627;50.920;12.050;2023-04-16T01:42:50;8.30;99.90
13123;DHT22;6627;50.920;12.050;2023-04-16T01:45:17;8.30;99.90
13123;DHT22;6627;50.920;12.050;2023-04-16T01:47:44;8.30;99.90
13123;DHT22;6627;50.920;12.050;2023-04-16T01:50:12;8.30;99.90
13123;DHT22;6627;50.920;12.050;2023-04-16T01:52:40;8.30;99.90
13123;DHT22;6627;50.920;12.050;2023-04-16T01:55:08;8.30;99.90
13123;DHT22;6627;50.920;12.050;2023-04-16T01:57:36;8.30;99.90
13123;DHT22;6627;50.920;12.050;2023-04-16T02:00:04;8.30;99.90
13123;DHT22;6627;50.920;12.050;2023-04-16T02:02:33;8.30;99.90
13123;DHT22;6627;50.920;12.050;2023-04-16T02:05:02;8.30;99.90
13123;DHT22;6627;50.920;12.050;2023-04-16T02:07:29;8.30;99.90
13123;DHT22;6627;50.920;12.050;2023-04-16T02:09:57;8.30;99.90
13123;DHT22;6627;50.920;12.050;2023-04-16T02:12:26;8.20;99.90
13123;DHT22;6627;50.920;12.050;2023-04-16T02:14:53;8.20;99.90
13123;DHT22;6627;50.920;12.050;2023-04-16T02:17:20;8.20;99.90
13123;DHT22;6627;50.920;12.050;2023-04-16T02:19:47;8.30;99.90
13123;DHT22;6627;50.920;12.050;2023-04-16T02:22:14;8.30;99.90
13123;DHT22;6627;50.920;12.050;2023-04-16T02:24:41;8.30;99.90
13123;DHT22;6627;50.920;12.050;2023-04-16T02:27:09;8.20;99.90
13123;DHT22;6627;50.920;12.050;2023-04-16T02:29:37;8.20;99.90
13123;DHT22;6627;50.920;12.050;2023-04-16T02:32:05;8.20;99.90
13123;DHT22;6627;50.920;12.050;2023-04-16T02:34:32;8.20;99.90
13123;DHT22;6627;50.920;12.050;2023-04-16T02:37:00;8.20;99.90
13123;DHT22;6627;50.920;12.050;2023-04-16T02:39:27;8.20;99.90
13123;DHT22;6627;50.920;12.050;2023-04-16T02:41:55;8.20;99.90
13123;DHT22;6627;50.920;12.050;2023-04-16T02:46:51;8.20;99.90
13123;DHT22;6627;50.920;12.050;2023-04-16T02:49:18;8.20;99.90
13123;DHT22;6627;50.920;12.050;2023-04-16T02:51:45;8.20;99.90
13123;DHT22;6627;50.920;12.050;2023-04-16T02:54:13;8.20;99.90
13123;DHT22;6627;50.920;12.050;2023-04-16T02:56:40;8.20;99.90
13123;DHT22;6627;50.920;12.050;2023-04-16T02:59:07;8.20;99.90
13123;DHT22;6627;50.920;12.050;2023-04-16T03:01:34;8.20;99.90
13123;DHT22;6627;50.920;12.050;2023-04-16T03:04:02;8.20;99.90
13123;DHT22;6627;50.920;12.050;2023-04-16T03:06:31;8.20;99.90
13123;DHT22;6627;50.920;12.050;2023-04-16T03:08:58;8.20;99.90
13123;DHT22;6627;50.920;12.050;2023-04-16T03:11:25;8.20;99.90
13123;DHT22;6627;50.920;12.050;2023-04-16T03:13:52;8.20;99.90
13123;DHT22;6627;50.920;12.050;2023-04-16T03:16:19;8.20;99.90
13123;DHT22;6627;50.920;12.050;2023-04-16T03:18:47;8.20;99.90
13123;DHT22;6627;50.920;12.050;2023-04-16T03:21:16;8.20;99.90
13123;DHT22;6627;50.920;12.050;2023-04-16T03:23:43;8.10;99.90
13123;DHT22;6627;50.920;12.050;2023-04-16T03:26:12;8.20;99.90
13123;DHT22;6627;50.920;12.050;2023-04-16T03:28:39;8.10;99.90
13123;DHT22;6627;50.920;12.050;2023-04-16T03:31:06;8.10;99.90
13123;DHT22;6627;50.920;12.050;2023-04-16T03:33:33;8.10;99.90
13123;DHT22;6627;50.920;12.050;2023-04-16T03:36:00;8.10;99.90
13123;DHT22;6627;50.920;12.050;2023-04-16T03:38:29;8.10;99.90
13123;DHT22;6627;50.920;12.050;2023-04-16T03:40:56;8.10;99.90
13123;DHT22;6627;50.920;12.050;2023-04-16T03:43:23;8.10;99.90
13123;DHT22;6627;50.920;12.050;2023-04-16T03:45:50;8.10;99.90
13123;DHT22;6627;50.920;12.050;2023-04-16T03:48:17;8.10;99.90
13123;DHT22;6627;50.920;12.050;2023-04-16T03:50:45;8.10;99.90
13123;DHT22;6627;50.920;12.050;2023-04-16T03:53:13;8.10;99.90
13123;DHT22;6627;50.920;12.050;2023-04-16T03:55:42;8.20;99.90
13123;DHT22;6627;50.920;12.050;2023-04-16T03:58:09;8.20;99.90
13123;DHT22;6627;50.920;12.050;2023-04-16T04:00:36;8.20;99.90
13123;DHT22;6627;50.920;12.050;2023-04-16T04:03:07;8.20;99.90
13123;DHT22;6627;50.920;12.050;2023-04-16T04:05:35;8.10;99.90
13123;DHT22;6627;50.920;12.050;2023-04-16T04:08:03;8.10;99.90
13123;DHT22;6627;50.920;12.050;2023-04-16T04:10:31;8.10;99.90
13123;DHT22;6627;50.920;12.050;2023-04-16T04:13:00;8.20;99.90
13123;DHT22;6627;50.920;12.050;2023-04-16T04:15:30;8.20;99.90
13123;DHT22;6627;50.920;12.050;2023-04-16T04:17:58;8.10;99.90
13123;DHT22;6627;50.920;12.050;2023-04-16T04:20:25;8.10;99.90
13123;DHT22;6627;50.920;12.050;2023-04-16T04:22:52;8.10;99.90
13123;DHT22;6627;50.920;12.050;2023-04-16T04:25:19;8.10;99.90
13123;DHT22;6627;50.920;12.050;2023-04-16T04:27:47;8.10;99.90
13123;DHT22;6627;50.920;12.050;2023-04-16T04:30:15;8.10;99.90
13123;DHT22;6627;50.920;12.050;2023-04-16T04:32:42;8.10;99.90
13123;DHT22;6627;50.920;12.050;2023-04-16T04:35:10;8.10;99.90
13123;DHT22;6627;50.920;12.050;2023-04-16T04:37:41;8.10;99.90
13123;DHT22;6627;50.920;12.050;2023-04-16T04:40:08;8.10;99.90
13123;DHT22;6627;50.920;12.050;2023-04-16T04:42:36;8.10;99.90
13123;DHT22;6627;50.920;12.050;2023-04-16T04:45:05;8.20;99.90
13123;DHT22;6627;50.920;12.050;2023-04-16T04:47:34;8.20;99.90
13123;DHT22;6627;50.920;12.050;2023-04-16T04:50:01;8.20;99.90
13123;DHT22;6627;50.920;12.050;2023-04-16T04:52:29;8.20;99.90
13123;DHT22;6627;50.920;12.050;2023-04-16T04:54:56;8.20;99.90
13123;DHT22;6627;50.920;12.050;2023-04-16T04:57:23;8.30;99.90
13123;DHT22;6627;50.920;12.050;2023-04-16T04:59:50;8.20;99.90
13123;DHT22;6627;50.920;12.050;2023-04-16T05:02:17;8.30;99.90
13123;DHT22;6627;50.920;12.050;2023-04-16T05:04:46;8.30;99.90
13123;DHT22;6627;50.920;12.050;2023-04-16T05:07:13;8.30;99.90
13123;DHT22;6627;50.920;12.050;2023-04-16T05:09:40;8.30;99.90
13123;DHT22;6627;50.920;12.050;2023-04-16T05:12:07;8.30;99.90
13123;DHT22;6627;50.920;12.050;2023-04-16T05:14:34;8.30;99.90
13123;DHT22;6627;50.920;12.050;2023-04-16T05:17:02;8.30;99.90
13123;DHT22;6627;50.920;12.050;2023-04-16T05:19:29;8.30;99.90
13123;DHT22;6627;50.920;12.050;2023-04-16T05:21:57;8.40;99.90
13123;DHT22;6627;50.920;12.050;2023-04-16T05:24:27;8.40;99.90
13123;DHT22;6627;50.920;12.050;2023-04-16T05:26:55;8.40;99.90
13123;DHT22;6627;50.920;12.050;2023-04-16T05:29:22;8.40;99.90
13123;DHT22;6627;50.920;12.050;2023-04-16T05:31:49;8.40;99.90
13123;DHT22;6627;50.920;12.050;2023-04-16T05:34:17;8.40;99.90
13123;DHT22;6627;50.920;12.050;2023-04-16T05:36:44;8.40;99.90
13123;DHT22;6627;50.920;12.050;2023-04-16T05:39:13;8.40;99.90
13123;DHT22;6627;50.920;12.050;2023-04-16T05:41:40;8.50;99.90
13123;DHT22;6627;50.920;12.050;2023-04-16T05:44:09;8.50;99.90
13123;DHT22;6627;50.920;12.050;2023-04-16T05:46:36;8.40;99.90
13123;DHT22;6627;50.920;12.050;2023-04-16T05:49:03;8.50;99.90
13123;DHT22;6627;50.920;12.050;2023-04-16T05:51:30;8.50;99.90
13123;DHT22;6627;50.920;12.050;2023-04-16T05:53:58;8.50;99.90
13123;DHT22;6627;50.920;12.050;2023-04-16T05:56:26;8.50;99.90
13123;DHT22;6627;50.920;12.050;2023-04-16T05:58:53;8.50;99.90
13123;DHT22;6627;50.920;12.050;2023-04-16T06:01:20;8.60;99.90
13123;DHT22;6627;50.920;12.050;2023-04-16T06:03:48;8.60;99.90
13123;DHT22;6627;50.920;12.050;2023-04-16T06:06:15;8.50;99.90
13123;DHT22;6627;50.920;12.050;2023-04-16T06:08:43;8.60;99.90
13123;DHT22;6627;50.920;12.050;2023-04-16T06:11:10;8.60;99.90
13123;DHT22;6627;50.920;12.050;2023-04-16T06:13:39;8.60;99.90
13123;DHT22;6627;50.920;12.050;2023-04-16T06:16:07;8.70;99.90
13123;DHT22;6627;50.920;12.050;2023-04-16T06:18:34;8.70;99.90
13123;DHT22;6627;50.920;12.050;2023-04-16T06:21:02;8.70;99.90
13123;DHT22;6627;50.920;12.050;2023-04-16T06:23:30;8.70;99.90
13123;DHT22;6627;50.920;12.050;2023-04-16T06:25:57;8.70;99.90
13123;DHT22;6627;50.920;12.050;2023-04-16T06:28:24;8.70;99.90
13123;DHT22;6627;50.920;12.050;2023-04-16T06:30:53;8.70;99.90
13123;DHT22;6627;50.920;12.050;2023-04-16T06:33:20;8.70;99.90
13123;DHT22;6627;50.920;12.050;2023-04-16T06:35:47;8.80;99.90
13123;DHT22;6627;50.920;12.050;2023-04-16T06:38:15;8.80;99.90
13123;DHT22;6627;50.920;12.050;2023-04-16T06:40:42;8.80;99.90
13123;DHT22;6627;50.920;12.050;2023-04-16T06:43:09;8.70;99.90
13123;DHT22;6627;50.920;12.050;2023-04-16T06:45:37;8.70;99.90
13123;DHT22;6627;50.920;12.050;2023-04-16T06:48:06;8.80;99.90
13123;DHT22;6627;50.920;12.050;2023-04-16T06:50:33;8.70;99.90
13123;DHT22;6627;50.920;12.050;2023-04-16T06:53:07;8.70;99.90
13123;DHT22;6627;50.920;12.050;2023-04-16T06:55:34;8.80;99.90
13123;DHT22;6627;50.920;12.050;2023-04-16T06:58:21;8.80;99.90
13123;DHT22;6627;50.920;12.050;2023-04-16T07:00:48;8.90;99.90
13123;DHT22;6627;50.920;12.050;2023-04-16T07:03:17;8.90;99.90
13123;DHT22;6627;50.920;12.050;2023-04-16T07:05:44;8.90;99.90
13123;DHT22;6627;50.920;12.050;2023-04-16T07:08:11;8.90;99.90
13123;DHT22;6627;50.920;12.050;2023-04-16T07:10:48;8.90;99.90
13123;DHT22;6627;50.920;12.050;2023-04-16T07:13:15;8.90;99.90
13123;DHT22;6627;50.920;12.050;2023-04-16T07:15:43;9.00;99.90
13123;DHT22;6627;50.920;12.050;2023-04-16T07:18:10;9.10;99.90
13123;DHT22;6627;50.920;12.050;2023-04-16T07:20:38;9.00;99.90
13123;DHT22;6627;50.920;12.050;2023-04-16T07:23:06;9.10;99.90
13123;DHT22;6627;50.920;12.050;2023-04-16T07:25:37;9.10;99.90
13123;DHT22;6627;50.920;12.050;2023-04-16T07:28:05;9.10;99.90
13123;DHT22;6627;50.920;12.050;2023-04-16T07:30:32;9.20;99.90
13123;DHT22;6627;50.920;12.050;2023-04-16T07:33:01;9.30;99.90
13123;DHT22;6627;50.920;12.050;2023-04-16T07:35:29;9.30;99.90
13123;DHT22;6627;50.920;12.050;2023-04-16T07:38:14;9.40;99.90
13123;DHT22;6627;50.920;12.050;2023-04-16T07:40:41;9.40;99.90
13123;DHT22;6627;50.920;12.050;2023-04-16T07:43:10;9.50;99.90
13123;DHT22;6627;50.920;12.050;2023-04-16T07:45:38;9.50;99.90
13123;DHT22;6627;50.920;12.050;2023-04-16T07:48:05;9.60;99.90
13123;DHT22;6627;50.920;12.050;2023-04-16T07:50:32;9.60;99.90
13123;DHT22;6627;50.920;12.050;2023-04-16T07:53:00;9.50;99.90
13123;DHT22;6627;50.920;12.050;2023-04-16T07:55:28;9.50;99.90
13123;DHT22;6627;50.920;12.050;2023-04-16T07:57:55;9.50;99.90
13123;DHT22;6627;50.920;12.050;2023-04-16T08:00:23;9.60;99.90
13123;DHT22;6627;50.920;12.050;2023-04-16T08:02:52;9.70;99.90
13123;DHT22;6627;50.920;12.050;2023-04-16T08:05:19;9.60;99.90
13123;DHT22;6627;50.920;12.050;2023-04-16T08:07:46;9.70;99.90
13123;DHT22;6627;50.920;12.050;2023-04-16T08:10:13;9.70;99.90
13123;DHT22;6627;50.920;12.050;2023-04-16T08:12:42;9.60;99.90
13123;DHT22;6627;50.920;12.050;2023-04-16T08:15:10;9.70;99.90
13123;DHT22;6627;50.920;12.050;2023-04-16T08:17:37;9.80;99.90
13123;DHT22;6627;50.920;12.050;2023-04-16T08:20:05;9.70;99.90
13123;DHT22;6627;50.920;12.050;2023-04-16T08:22:33;9.80;99.90
13123;DHT22;6627;50.920;12.050;2023-04-16T08:25:02;9.80;99.90
13123;DHT22;6627;50.920;12.050;2023-04-16T08:27:29;9.80;99.90
13123;DHT22;6627;50.920;12.050;2023-04-16T08:29:57;9.80;99.90
13123;DHT22;6627;50.920;12.050;2023-04-16T08:32:25;9.80;99.90
13123;DHT22;6627;50.920;12.050;2023-04-16T08:34:52;9.70;99.90
13123;DHT22;6627;50.920;12.050;2023-04-16T08:37:22;9.70;99.90
13123;DHT22;6627;50.920;12.050;2023-04-16T08:39:51;9.80;99.90
13123;DHT22;6627;50.920;12.050;2023-04-16T08:42:23;9.70;99.90
13123;DHT22;6627;50.920;12.050;2023-04-16T08:45:05;9.70;99.90
13123;DHT22;6627;50.920;12.050;2023-04-16T08:47:46;9.80;99.90
13123;DHT22;6627;50.920;12.050;2023-04-16T08:50:15;9.70;99.90
13123;DHT22;6627;50.920;12.050;2023-04-16T08:52:50;9.80;99.90
13123;DHT22;6627;50.920;12.050;2023-04-16T08:55:21;9.80;99.90
13123;DHT22;6627;50.920;12.050;2023-04-16T08:57:53;9.90;99.90
13123;DHT22;6627;50.920;12.050;2023-04-16T09:00:36;9.80;99.90
13123;DHT22;6627;50.920;12.050;2023-04-16T09:03:06;9.90;99.90
13123;DHT22;6627;50.920;12.050;2023-04-16T09:05:35;9.90;99.90
13123;DHT22;6627;50.920;12.050;2023-04-16T09:08:03;9.90;99.90
13123;DHT22;6627;50.920;12.050;2023-04-16T09:10:32;10.10;99.90
13123;DHT22;6627;50.920;12.050;2023-04-16T09:13:00;10.00;99.90
13123;DHT22;6627;50.920;12.050;2023-04-16T09:15:29;10.00;99.90
13123;DHT22;6627;50.920;12.050;2023-04-16T09:17:59;10.00;99.90
13123;DHT22;6627;50.920;12.050;2023-04-16T09:20:26;9.90;99.90
13123;DHT22;6627;50.920;12.050;2023-04-16T09:22:53;10.00;99.90
13123;DHT22;6627;50.920;12.050;2023-04-16T09:25:22;10.00;99.90
13123;DHT22;6627;50.920;12.050;2023-04-16T09:27:50;10.20;99.90
13123;DHT22;6627;50.920;12.050;2023-04-16T09:30:20;10.20;99.90
13123;DHT22;6627;50.920;12.050;2023-04-16T09:32:49;10.10;99.90
13123;DHT22;6627;50.920;12.050;2023-04-16T09:35:44;10.20;99.90
13123;DHT22;6627;50.920;12.050;2023-04-16T09:38:14;10.20;99.90
13123;DHT22;6627;50.920;12.050;2023-04-16T09:40:42;10.20;99.90
13123;DHT22;6627;50.920;12.050;2023-04-16T09:43:10;10.20;99.90
13123;DHT22;6627;50.920;12.050;2023-04-16T09:45:49;10.20;99.90
13123;DHT22;6627;50.920;12.050;2023-04-16T09:48:27;10.30;99.90
13123;DHT22;6627;50.920;12.050;2023-04-16T09:50:57;10.20;99.90
13123;DHT22;6627;50.920;12.050;2023-04-16T09:53:26;10.20;99.90
13123;DHT22;6627;50.920;12.050;2023-04-16T09:55:55;10.20;99.90
13123;DHT22;6627;50.920;12.050;2023-04-16T09:58:24;10.00;99.90
13123;DHT22;6627;50.920;12.050;2023-04-16T10:00:54;10.00;99.90
13123;DHT22;6627;50.920;12.050;2023-04-16T10:03:28;10.00;99.90
13123;DHT22;6627;50.920;12.050;2023-04-16T10:06:00;10.00;99.90
13123;DHT22;6627;50.920;12.050;2023-04-16T10:08:29;10.00;99.90
13123;DHT22;6627;50.920;12.050;2023-04-16T10:10:57;9.90;99.90
13123;DHT22;6627;50.920;12.050;2023-04-16T10:13:25;9.80;99.90
13123;DHT22;6627;50.920;12.050;2023-04-16T10:15:55;9.80;99.90
13123;DHT22;6627;50.920;12.050;2023-04-16T10:18:22;9.90;99.90
13123;DHT22;6627;50.920;12.050;2023-04-16T10:20:56;9.80;99.90
13123;DHT22;6627;50.920;12.050;2023-04-16T10:23:25;9.90;99.90
13123;DHT22;6627;50.920;12.050;2023-04-16T10:25:53;9.90;99.90
13123;DHT22;6627;50.920;12.050;2023-04-16T10:28:21;9.90;99.90
13123;DHT22;6627;50.920;12.050;2023-04-16T10:30:51;10.00;99.90
13123;DHT22;6627;50.920;12.050;2023-04-16T10:33:20;10.00;99.90
13123;DHT22;6627;50.920;12.050;2023-04-16T10:35:49;10.00;99.90
13123;DHT22;6627;50.920;12.050;2023-04-16T10:40:50;9.90;99.90
13123;DHT22;6627;50.920;12.050;2023-04-16T10:43:24;9.90;99.90
13123;DHT22;6627;50.920;12.050;2023-04-16T10:45:54;10.00;99.90
13123;DHT22;6627;50.920;12.050;2023-04-16T10:48:23;10.10;99.90
13123;DHT22;6627;50.920;12.050;2023-04-16T10:50:54;10.00;99.90
13123;DHT22;6627;50.920;12.050;2023-04-16T10:53:24;9.90;99.90
13123;DHT22;6627;50.920;12.050;2023-04-16T10:56:09;9.90;99.90
13123;DHT22;6627;50.920;12.050;2023-04-16T10:58:40;9.90;99.90
13123;DHT22;6627;50.920;12.050;2023-04-16T11:01:11;10.00;99.90
13123;DHT22;6627;50.920;12.050;2023-04-16T11:03:42;9.90;99.90
13123;DHT22;6627;50.920;12.050;2023-04-16T11:06:13;9.80;99.90
13123;DHT22;6627;50.920;12.050;2023-04-16T11:08:43;9.80;99.90
13123;DHT22;6627;50.920;12.050;2023-04-16T11:11:13;10.00;99.90
13123;DHT22;6627;50.920;12.050;2023-04-16T11:13:42;9.90;99.90
13123;DHT22;6627;50.920;12.050;2023-04-16T11:16:10;10.00;99.90
13123;DHT22;6627;50.920;12.050;2023-04-16T11:18:40;9.90;99.90
13123;DHT22;6627;50.920;12.050;2023-04-16T11:21:08;9.90;99.90
13123;DHT22;6627;50.920;12.050;2023-04-16T11:23:46;10.00;99.90
13123;DHT22;6627;50.920;12.050;2023-04-16T11:26:24;10.00;99.90
13123;DHT22;6627;50.920;12.050;2023-04-16T11:28:54;10.00;99.90
13123;DHT22;6627;50.920;12.050;2023-04-16T11:31:22;9.90;99.90
13123;DHT22;6627;50.920;12.050;2023-04-16T11:33:53;9.90;99.90
13123;DHT22;6627;50.920;12.050;2023-04-16T11:36:41;9.90;99.90
13123;DHT22;6627;50.920;12.050;2023-04-16T11:39:09;9.90;99.90
13123;DHT22;6627;50.920;12.050;2023-04-16T11:41:42;9.90;99.90
13123;DHT22;6627;50.920;12.050;2023-04-16T11:44:19;9.80;99.90
13123;DHT22;6627;50.920;12.050;2023-04-16T11:46:49;9.80;99.90
13123;DHT22;6627;50.920;12.050;2023-04-16T11:49:17;9.70;99.90
13123;DHT22;6627;50.920;12.050;2023-04-16T11:51:53;9.80;99.90
13123;DHT22;6627;50.920;12.050;2023-04-16T11:56:52;9.80;99.90
13123;DHT22;6627;50.920;12.050;2023-04-16T11:59:21;9.80;99.90
13123;DHT22;6627;50.920;12.050;2023-04-16T12:01:50;9.80;99.90
13123;DHT22;6627;50.920;12.050;2023-04-16T12:04:19;9.80;99.90
13123;DHT22;6627;50.920;12.050;2023-04-16T12:07:09;9.80;99.90
13123;DHT22;6627;50.920;12.050;2023-04-16T12:09:48;9.80;99.90
13123;DHT22;6627;50.920;12.050;2023-04-16T12:14:56;9.90;99.90
13123;DHT22;6627;50.920;12.050;2023-04-16T12:17:30;9.90;99.90
13123;DHT22;6627;50.920;12.050;2023-04-16T12:20:11;10.00;99.90
13123;DHT22;6627;50.920;12.050;2023-04-16T12:22:49;10.00;99.90
13123;DHT22;6627;50.920;12.050;2023-04-16T12:25:19;10.10;99.90
13123;DHT22;6627;50.920;12.050;2023-04-16T12:27:49;10.20;99.90
13123;DHT22;6627;50.920;12.050;2023-04-16T12:30:19;10.20;99.90
13123;DHT22;6627;50.920;12.050;2023-04-16T12:32:48;10.10;99.90
13123;DHT22;6627;50.920;12.050;2023-04-16T12:35:29;9.90;99.90
13123;DHT22;6627;50.920;12.050;2023-04-16T12:37:58;10.00;99.90
13123;DHT22;6627;50.920;12.050;2023-04-16T12:40:27;10.00;99.90
13123;DHT22;6627;50.920;12.050;2023-04-16T12:42:57;10.10;99.90
13123;DHT22;6627;50.920;12.050;2023-04-16T12:45:25;10.20;99.90
13123;DHT22;6627;50.920;12.050;2023-04-16T12:47:52;10.00;99.90
13123;DHT22;6627;50.920;12.050;2023-04-16T12:50:21;10.00;99.90
13123;DHT22;6627;50.920;12.050;2023-04-16T12:52:48;10.20;99.90
13123;DHT22;6627;50.920;12.050;2023-04-16T12:55:15;10.00;99.90
13123;DHT22;6627;50.920;12.050;2023-04-16T12:57:43;10.00;99.90
13123;DHT22;6627;50.920;12.050;2023-04-16T13:00:16;10.00;99.90
13123;DHT22;6627;50.920;12.050;2023-04-16T13:02:43;10.00;99.90
13123;DHT22;6627;50.920;12.050;2023-04-16T13:05:10;9.90;99.90
13123;DHT22;6627;50.920;12.050;2023-04-16T13:07:39;9.90;99.90
13123;DHT22;6627;50.920;12.050;2023-04-16T13:10:08;9.90;99.90
13123;DHT22;6627;50.920;12.050;2023-04-16T13:12:35;10.00;99.90
13123;DHT22;6627;50.920;12.050;2023-04-16T13:15:03;9.90;99.90
13123;DHT22;6627;50.920;12.050;2023-04-16T13:17:34;9.80;99.90
13123;DHT22;6627;50.920;12.050;2023-04-16T13:20:05;9.70;99.90
13123;DHT22;6627;50.920;12.050;2023-04-16T13:22:53;9.70;99.90
13123;DHT22;6627;50.920;12.050;2023-04-16T13:25:20;9.80;99.90
13123;DHT22;6627;50.920;12.050;2023-04-16T13:27:47;9.70;99.90
13123;DHT22;6627;50.920;12.050;2023-04-16T13:30:15;9.70;99.90
13123;DHT22;6627;50.920;12.050;2023-04-16T13:32:43;9.80;99.90
13123;DHT22;6627;50.920;12.050;2023-04-16T13:35:12;9.70;99.90
13123;DHT22;6627;50.920;12.050;2023-04-16T13:37:39;9.80;99.90
13123;DHT22;6627;50.920;12.050;2023-04-16T13:40:18;9.70;99.90
13123;DHT22;6627;50.920;12.050;2023-04-16T13:45:14;9.80;99.90
13123;DHT22;6627;50.920;12.050;2023-04-16T13:50:11;9.70;99.90
13123;DHT22;6627;50.920;12.050;2023-04-16T13:52:38;9.70;99.90
13123;DHT22;6627;50.920;12.050;2023-04-16T13:55:06;9.70;99.90
13123;DHT22;6627;50.920;12.050;2023-04-16T13:57:38;9.80;99.90
13123;DHT22;6627;50.920;12.050;2023-04-16T14:02:36;9.80;99.90
13123;DHT22;6627;50.920;12.050;2023-04-16T14:05:05;9.80;99.90
13123;DHT22;6627;50.920;12.050;2023-04-16T14:07:34;9.80;99.90
13123;DHT22;6627;50.920;12.050;2023-04-16T14:10:03;9.80;99.90
13123;DHT22;6627;50.920;12.050;2023-04-16T14:12:30;9.90;99.90
13123;DHT22;6627;50.920;12.050;2023-04-16T14:14:57;10.00;99.90
13123;DHT22;6627;50.920;12.050;2023-04-16T14:17:25;10.00;99.90
13123;DHT22;6627;50.920;12.050;2023-04-16T14:19:52;9.90;99.90
13123;DHT22;6627;50.920;12.050;2023-04-16T14:22:20;9.90;99.90
13123;DHT22;6627;50.920;12.050;2023-04-16T14:24:47;9.90;99.90
13123;DHT22;6627;50.920;12.050;2023-04-16T14:27:14;10.00;99.90
13123;DHT22;6627;50.920;12.050;2023-04-16T14:32:11;9.90;99.90
13123;DHT22;6627;50.920;12.050;2023-04-16T14:34:38;9.80;99.90
13123;DHT22;6627;50.920;12.050;2023-04-16T14:37:05;9.90;99.90
13123;DHT22;6627;50.920;12.050;2023-04-16T14:42:03;9.80;99.90
13123;DHT22;6627;50.920;12.050;2023-04-16T14:44:31;9.80;99.90
13123;DHT22;6627;50.920;12.050;2023-04-16T14:46:58;9.80;99.90
13123;DHT22;6627;50.920;12.050;2023-04-16T14:49:25;9.60;99.90
13123;DHT22;6627;50.920;12.050;2023-04-16T14:51:53;9.70;99.90
13123;DHT22;6627;50.920;12.050;2023-04-16T14:54:21;9.70;99.90
13123;DHT22;6627;50.920;12.050;2023-04-16T14:56:50;9.70;99.90
13123;DHT22;6627;50.920;12.050;2023-04-16T14:59:17;9.60;99.90
13123;DHT22;6627;50.920;12.050;2023-04-16T15:01:44;9.60;99.90
13123;DHT22;6627;50.920;12.050;2023-04-16T15:04:11;9.60;99.90
13123;DHT22;6627;50.920;12.050;2023-04-16T15:06:39;9.60;99.90
13123;DHT22;6627;50.920;12.050;2023-04-16T15:09:06;9.60;99.90
13123;DHT22;6627;50.920;12.050;2023-04-16T15:11:34;9.50;99.90
13123;DHT22;6627;50.920;12.050;2023-04-16T15:14:02;9.60;99.90
13123;DHT22;6627;50.920;12.050;2023-04-16T15:16:30;9.50;99.90
13123;DHT22;6627;50.920;12.050;2023-04-16T15:18:57;9.60;99.90
13123;DHT22;6627;50.920;12.050;2023-04-16T15:21:24;9.50;99.90
13123;DHT22;6627;50.920;12.050;2023-04-16T15:24:12;9.50;99.90
13123;DHT22;6627;50.920;12.050;2023-04-16T15:26:39;9.50;99.90
13123;DHT22;6627;50.920;12.050;2023-04-16T15:31:35;9.50;99.90
13123;DHT22;6627;50.920;12.050;2023-04-16T15:34:02;9.50;99.90
13123;DHT22;6627;50.920;12.050;2023-04-16T15:36:30;9.50;99.90
13123;DHT22;6627;50.920;12.050;2023-04-16T15:38:57;9.50;99.90
13123;DHT22;6627;50.920;12.050;2023-04-16T15:41:24;9.50;99.90
13123;DHT22;6627;50.920;12.050;2023-04-16T15:44:15;9.50;99.90
13123;DHT22;6627;50.920;12.050;2023-04-16T15:46:42;9.50;99.90
13123;DHT22;6627;50.920;12.050;2023-04-16T15:49:09;9.50;99.90
13123;DHT22;6627;50.920;12.050;2023-04-16T15:51:37;9.50;99.90
13123;DHT22;6627;50.920;12.050;2023-04-16T15:54:04;9.50;99.90
13123;DHT22;6627;50.920;12.050;2023-04-16T15:56:32;9.40;99.90
13123;DHT22;6627;50.920;12.050;2023-04-16T15:59:01;9.40;99.90
13123;DHT22;6627;50.920;12.050;2023-04-16T16:01:30;9.40;99.90
13123;DHT22;6627;50.920;12.050;2023-04-16T16:03:57;9.40;99.90
13123;DHT22;6627;50.920;12.050;2023-04-16T16:06:25;9.40;99.90
13123;DHT22;6627;50.920;12.050;2023-04-16T16:08:53;9.40;99.90
13123;DHT22;6627;50.920;12.050;2023-04-16T16:11:20;9.40;99.90
13123;DHT22;6627;50.920;12.050;2023-04-16T16:13:47;9.40;99.90
13123;DHT22;6627;50.920;12.050;2023-04-16T16:16:15;9.40;99.90
13123;DHT22;6627;50.920;12.050;2023-04-16T16:18:43;9.30;99.90
13123;DHT22;6627;50.920;12.050;2023-04-16T16:21:10;9.30;99.90